createdAt,value
2019-04-30T00:00:18.609Z,1
2019-04-30T00:05:19.208Z,3.3
2019-04-30T00:10:17.240Z,1.2
2019-04-30T00:15:19.811Z,3.6
2019-04-30T00:20:18.051Z,3.2
2019-04-30T00:25:24.232Z,2.4
2019-04-30T00:30:16.848Z,3.4
2019-04-30T00:35:19.857Z,0.8
2019-04-30T00:40:16.867Z,3.8
2019-04-30T00:45:17.768Z,3.6
2019-04-30T00:50:17.663Z,2.7
2019-04-30T00:55:17.598Z,3.2
2019-04-30T01:00:29.562Z,0.7
2019-04-30T01:05:17.589Z,0.8
2019-04-30T01:10:24.593Z,3.5
2019-04-30T01:15:19.327Z,3.7
2019-04-30T01:20:19.475Z,3.9
2019-04-30T01:25:20.869Z,2.3
2019-04-30T01:30:22.803Z,1.4
2019-04-30T01:35:18.632Z,1
2019-04-30T01:40:19.184Z,1.5
2019-04-30T01:45:18.931Z,0.8
2019-04-30T01:50:16.810Z,2.1
2019-04-30T01:55:19.817Z,0.6
2019-04-30T02:00:19.756Z,1.5
2019-04-30T02:05:19.170Z,1.2
2019-04-30T02:10:18.955Z,2.1
2019-04-30T02:15:16.855Z,1.2
2019-04-30T02:20:18.777Z,0.8
2019-04-30T02:25:19.725Z,3.9
2019-04-30T02:30:21.130Z,1.2
2019-04-30T02:35:19.658Z,1.2
2019-04-30T02:40:20.456Z,2
2019-04-30T02:45:20.040Z,2.4
2019-04-30T02:50:22.602Z,1.5
2019-04-30T02:55:19.698Z,1.7
2019-04-30T03:00:21.075Z,0.9
2019-04-30T03:05:19.538Z,1.2
2019-04-30T03:10:20.092Z,1.1
2019-04-30T03:15:23.106Z,1.1
2019-04-30T03:20:35.503Z,0.5
2019-04-30T03:25:19.478Z,3.2
2019-04-30T03:30:22.299Z,2.3
2019-04-30T03:35:21.460Z,0.9
2019-04-30T03:40:25.436Z,2.2
2019-04-30T03:45:20.210Z,3
2019-04-30T03:50:20.207Z,1.7
2019-04-30T03:55:17.085Z,1.6
2019-04-30T04:00:17.136Z,1
2019-04-30T04:05:17.057Z,4.3
2019-04-30T04:10:19.726Z,7.5
2019-04-30T04:15:20.174Z,7.9
2019-04-30T04:20:20.046Z,2.9
2019-04-30T04:25:20.740Z,4.9
2019-04-30T04:30:20.696Z,9.9
2019-04-30T04:35:20.134Z,10.7
2019-04-30T04:40:17.207Z,10.7
2019-04-30T04:45:20.081Z,11.7
2019-04-30T04:50:16.985Z,3.9
2019-04-30T04:55:16.885Z,11.1
2019-04-30T05:00:19.733Z,2.7
2019-04-30T05:05:19.764Z,4.1
2019-04-30T05:10:19.506Z,12.2
2019-04-30T05:15:19.627Z,11.9
2019-04-30T05:20:19.636Z,12.9
2019-04-30T05:25:18.952Z,2.9
2019-04-30T05:30:16.995Z,4.7
2019-04-30T05:35:18.784Z,14.8
2019-04-30T05:40:19.124Z,5.2
2019-04-30T05:45:19.052Z,16.5
2019-04-30T05:50:17.183Z,17
2019-04-30T05:55:17.103Z,19.9
2019-04-30T06:00:19.284Z,21.1
2019-04-30T06:05:19.058Z,22.3
2019-04-30T06:10:17.093Z,21.2
2019-04-30T06:15:19.511Z,23.4
2019-04-30T06:20:21.163Z,4.9
2019-04-30T06:25:41.169Z,22.6
2019-04-30T06:30:20.022Z,22.4
2019-04-30T06:35:16.872Z,6.2
2019-04-30T06:40:19.416Z,20.2
2019-04-30T06:45:19.324Z,19.2
2019-04-30T06:50:19.196Z,3.8
2019-04-30T06:55:19.533Z,19.3
2019-04-30T07:00:19.426Z,18
2019-04-30T07:05:18.902Z,18.5
2019-04-30T07:10:20.306Z,16.6
2019-04-30T07:15:19.824Z,16.1
2019-04-30T07:20:19.371Z,15.5
2019-04-30T07:25:19.821Z,15
2019-04-30T07:30:19.511Z,14
2019-04-30T07:35:19.778Z,3.5
2019-04-30T07:40:18.450Z,12.9
2019-04-30T07:45:16.843Z,13.3
2019-04-30T07:50:22.259Z,3.8
2019-04-30T07:55:19.891Z,3
2019-04-30T08:00:16.815Z,12
2019-04-30T08:05:20.120Z,2.6
2019-04-30T08:10:19.141Z,13.3
2019-04-30T08:15:17.044Z,13.1
2019-04-30T08:20:17.140Z,13.4
2019-04-30T08:25:21.953Z,13.3
2019-04-30T08:30:26.851Z,3.8
2019-04-30T08:35:17.001Z,13
2019-04-30T08:40:19.311Z,3.3
2019-04-30T08:45:17.279Z,11.1
2019-04-30T08:50:20.127Z,11.2
2019-04-30T08:55:22.403Z,11.7
2019-04-30T09:00:19.741Z,1.6
2019-04-30T09:05:18.792Z,11.2
2019-04-30T09:10:16.782Z,1
2019-04-30T09:15:19.139Z,13
2019-04-30T09:20:18.927Z,12.8
2019-04-30T09:25:18.955Z,1.6
2019-04-30T09:30:19.222Z,11.5
2019-04-30T09:35:17.280Z,13.5
2019-04-30T09:40:21.239Z,13.5
2019-04-30T09:45:18.969Z,3.4
2019-04-30T09:50:19.118Z,12.6
2019-04-30T09:55:17.031Z,14.5
2019-04-30T10:00:16.949Z,14.3
2019-04-30T10:05:19.788Z,4.3
2019-04-30T10:10:19.118Z,13.3
2019-04-30T10:15:19.108Z,14.6
2019-04-30T10:20:17.138Z,5.7
2019-04-30T10:25:17.062Z,12.7
2019-04-30T10:30:16.978Z,12.1
2019-04-30T10:35:20.257Z,12.7
2019-04-30T10:40:20.468Z,13.1
2019-04-30T10:45:23.850Z,12.6
2019-04-30T10:50:17.758Z,12.7
2019-04-30T10:55:17.649Z,12.3
2019-04-30T11:00:18.908Z,12.9
2019-04-30T11:05:16.807Z,11.7
2019-04-30T11:10:19.068Z,3.4
2019-04-30T11:15:16.970Z,4.5
2019-04-30T11:20:22.468Z,3.2
2019-04-30T11:25:19.899Z,4
2019-04-30T11:30:24.262Z,5.1
2019-04-30T11:35:20.809Z,3.7
2019-04-30T11:40:16.847Z,3.2
2019-04-30T11:45:19.627Z,5
2019-04-30T11:50:17.518Z,3.4
2019-04-30T11:55:19.459Z,3.7
2019-04-30T12:00:19.047Z,3.7
2019-04-30T12:05:20.393Z,6.3
2019-04-30T12:10:19.649Z,4.1
2019-04-30T12:15:19.439Z,5.7
2019-04-30T12:20:19.469Z,4.9
2019-04-30T12:25:18.998Z,3.8
2019-04-30T12:30:20.359Z,5.4
2019-04-30T12:35:17.506Z,4.5
2019-04-30T12:40:29.917Z,8.5
2019-04-30T12:45:19.626Z,10.3
2019-04-30T12:50:19.706Z,6.9
2019-04-30T12:55:17.576Z,7.3
2019-04-30T13:00:19.665Z,6.9
2019-04-30T13:05:19.075Z,7.6
2019-04-30T13:10:18.347Z,7.7
2019-04-30T13:15:17.417Z,8.7
2019-04-30T13:20:24.026Z,12
2019-04-30T13:25:35.117Z,9.1
2019-04-30T13:30:20.738Z,11.7
2019-04-30T13:35:19.315Z,8
2019-04-30T13:40:20.396Z,7.2
2019-04-30T13:45:20.737Z,5.9
2019-04-30T13:50:21.524Z,6.5
2019-04-30T13:55:19.435Z,6.4
2019-04-30T14:00:18.836Z,6
2019-04-30T14:05:17.710Z,4.9
2019-04-30T14:10:19.794Z,6.3
2019-04-30T14:15:19.466Z,6.6
2019-04-30T14:20:17.515Z,5.8
2019-04-30T14:25:17.376Z,5.5
2019-04-30T14:30:22.288Z,7.5
2019-04-30T14:35:18.945Z,7.5
2019-04-30T14:40:20.372Z,5.4
2019-04-30T14:45:18.379Z,8
2019-04-30T14:50:18.917Z,5
2019-04-30T14:55:18.924Z,4.2
2019-04-30T15:00:16.785Z,4.7
2019-04-30T15:05:19.757Z,5.5
2019-04-30T15:10:17.785Z,5.9
2019-04-30T15:15:19.484Z,4.6
2019-04-30T15:20:19.653Z,4.9
2019-04-30T15:25:17.715Z,4.8
2019-04-30T15:30:22.112Z,5.9
2019-04-30T15:35:17.004Z,8.4
2019-04-30T15:40:19.116Z,4.2
2019-04-30T15:45:17.055Z,5.1
2019-04-30T15:50:16.944Z,5.6
2019-04-30T15:55:16.825Z,4.5
2019-04-30T16:00:19.003Z,5.5
2019-04-30T16:05:16.854Z,3.7
2019-04-30T16:10:18.825Z,4.6
2019-04-30T16:15:18.732Z,7.7
2019-04-30T16:20:16.777Z,5.8
2019-04-30T16:25:19.562Z,5.4
2019-04-30T16:30:19.763Z,4.7
2019-04-30T16:35:19.829Z,4.5
2019-04-30T16:40:19.265Z,4
2019-04-30T16:45:18.889Z,4.8
2019-04-30T16:50:19.094Z,8.5
2019-04-30T16:55:16.952Z,6
2019-04-30T17:00:16.964Z,6.3
2019-04-30T17:05:16.855Z,6.2
2019-04-30T17:10:19.011Z,7.2
2019-04-30T17:15:16.873Z,4.6
2019-04-30T17:20:21.049Z,6.5
2019-04-30T17:25:17.132Z,3.9
2019-04-30T17:30:19.176Z,7.1
2019-04-30T17:35:19.271Z,4.7
2019-04-30T17:40:19.411Z,23.9
2019-04-30T17:45:19.671Z,8.8
2019-04-30T17:50:19.061Z,21.8
2019-04-30T17:55:19.275Z,6.6
2019-04-30T18:00:22.344Z,20.7
2019-04-30T18:05:19.669Z,5.8
2019-04-30T18:10:19.511Z,19.7
2019-04-30T18:15:17.742Z,21.6
2019-04-30T18:20:16.811Z,20.8
2019-04-30T18:25:17.861Z,20.4
2019-04-30T18:30:21.183Z,19.9
2019-04-30T18:35:20.610Z,21.9
2019-04-30T18:40:18.920Z,20.8
2019-04-30T18:45:16.791Z,21.3
2019-04-30T18:50:17.831Z,8.2
2019-04-30T18:55:19.555Z,20.9
2019-04-30T19:00:19.920Z,8.3
2019-04-30T19:05:16.819Z,21.4
2019-04-30T19:10:16.831Z,20.3
2019-04-30T19:15:17.761Z,19.8
2019-04-30T19:20:19.041Z,8.6
2019-04-30T19:25:18.928Z,19.9
2019-04-30T19:30:19.117Z,19.8
2019-04-30T19:35:19.029Z,20.5
2019-04-30T19:40:19.248Z,7.3
2019-04-30T19:45:17.161Z,21.3
2019-04-30T19:50:19.411Z,6.2
2019-04-30T19:55:20.798Z,21.1
2019-04-30T20:00:17.699Z,22.5
2019-04-30T20:05:19.698Z,23
2019-04-30T20:10:19.740Z,9
2019-04-30T20:15:24.562Z,23.5
2019-04-30T20:20:19.188Z,10.9
2019-04-30T20:25:19.277Z,26.5
2019-04-30T20:30:19.400Z,29.4
2019-04-30T20:35:17.419Z,30.7
2019-04-30T20:40:18.808Z,32.1
2019-04-30T20:45:19.098Z,32.2
2019-04-30T20:50:16.988Z,34.4
2019-04-30T20:55:16.868Z,34.2
2019-04-30T21:00:17.907Z,32.6
2019-04-30T21:05:16.876Z,34.6
2019-04-30T21:10:17.110Z,35.8
2019-04-30T21:15:17.008Z,38.3
2019-04-30T21:20:19.607Z,12.4
2019-04-30T21:25:19.137Z,37.5
2019-04-30T21:30:17.008Z,36.5
2019-04-30T21:35:16.930Z,10.5
2019-04-30T21:40:17.022Z,36
2019-04-30T21:45:17.096Z,34.4
2019-04-30T21:50:16.998Z,33.5
2019-04-30T21:55:16.888Z,32.1
2019-04-30T22:00:18.746Z,10
2019-04-30T22:05:17.645Z,30
2019-04-30T22:10:17.817Z,28.3
2019-04-30T22:15:17.697Z,8
2019-04-30T22:20:19.328Z,28.3
2019-04-30T22:25:19.213Z,9.1
2019-04-30T22:30:17.305Z,26.1
2019-04-30T22:35:17.347Z,8.4
2019-04-30T22:40:19.718Z,23.7
2019-04-30T22:45:17.595Z,8.1
2019-04-30T22:50:17.496Z,24
2019-04-30T22:55:17.395Z,23.7
2019-04-30T23:00:17.264Z,7.1
2019-04-30T23:05:17.155Z,24.3
2019-04-30T23:10:17.155Z,9.7
2019-04-30T23:15:17.066Z,23.4
2019-04-30T23:20:17.167Z,23.8
2019-04-30T23:25:17.035Z,6.8
2019-04-30T23:30:16.960Z,23.2
2019-04-30T23:35:16.876Z,22
2019-04-30T23:40:16.885Z,21.9
2019-04-30T23:45:17.806Z,20.3
2019-04-30T23:50:17.717Z,20.5
2019-04-30T23:55:17.596Z,20.3
